Rechercher aéroport 
image banner adimage banner adimage banner ad
image banner ad

KCPU - Calaveras Co-Maury Rasmussen Field

Situé à San Andreas, United States

ICAO - CPU, IATA -

Données fournies par Airmate  

Information générale

Coordonnées: N38°8'46" W120°38'53"
Élévation : 1328 feet MSL.
Variation magnétique : 15° East
Voir autres Aéroports à California

Données opérationnelles

Special qualification required
Heure actuelle UTC:
Heure actuelle locale:
Météo
METAR: KCPU 020555Z AUTO 33007KT 10SM CLR 23/08 A3006 RMK AO2 T02320080 10361 20232
Voir NOTAMs / SUP AIP / TFR affectant cet aéroport [VIEW]
Fréquences de communication: [VIEW]

Pistes:

Identifiant RWYQFULongueur (ft)Largeur (ft)SurfaceLDA (ft)
13145°360260ASPH
31325°360260ASPH

Coordonnées de l'aéroport

Adresse: San Andreas United States

Vue satellite de KCPU